Time;durP1;ratioP1;P1;durP2;ratioP2;P2;SDS_P1;SDS_P2;PMS_P1;PMS_P2;Temp;Humidity;BMP_temperature;BMP_pressure;BME280_temperature;BME280_humidity;BME280_pressure;Samples;Min_cycle;Max_cycle;Signal;HPM_P1;HPM_P2
2022/01/07 00:08:48;;;;;;;16.17;6.93;;;0.20;99.90;;;;;;20637168;28;20032;-76
2022/01/07 00:18:49;;;;;;;17.27;6.68;;;0.20;99.90;;;;;;20635015;28;20112;-76
2022/01/07 00:28:50;;;;;;;23.63;8.63;;;0.20;99.90;;;;;;20655697;28;20027;-76
2022/01/07 00:38:51;;;;;;;23.98;9.98;;;0.20;99.90;;;;;;20611468;28;20125;-76
2022/01/07 00:48:52;;;;;;;21.25;9.48;;;0.20;99.90;;;;;;20643168;28;20058;-76
2022/01/07 00:58:53;;;;;;;21.83;9.40;;;0.20;99.90;;;;;;20623436;28;20056;-77
2022/01/07 01:08:54;;;;;;;17.92;7.60;;;0.20;99.90;;;;;;20624552;28;20038;-76
2022/01/07 01:18:55;;;;;;;15.20;7.30;;;0.20;99.90;;;;;;20639395;28;20039;-76
2022/01/07 01:28:55;;;;;;;17.40;7.78;;;0.20;99.90;;;;;;20631197;28;20650;-76
2022/01/07 01:38:56;;;;;;;19.85;7.28;;;0.20;99.90;;;;;;20618367;28;20093;-76
2022/01/07 01:48:57;;;;;;;18.08;7.85;;;0.30;99.90;;;;;;20606930;28;20461;-76
2022/01/07 01:58:58;;;;;;;15.68;7.65;;;0.20;99.90;;;;;;20624033;28;20500;-76
2022/01/07 02:08:59;;;;;;;16.42;7.93;;;0.30;99.90;;;;;;20634645;28;20037;-76
2022/01/07 02:19:00;;;;;;;22.90;8.18;;;0.30;99.90;;;;;;20632072;28;20492;-76
2022/01/07 02:29:03;;;;;;;18.63;8.20;;;0.30;99.90;;;;;;20623661;28;20109;-76
2022/01/07 02:39:03;;;;;;;19.38;8.15;;;0.40;99.90;;;;;;20631251;28;20037;-76
2022/01/07 02:49:13;;;;;;;18.27;7.53;;;0.50;99.90;;;;;;20621066;28;20564;-77
2022/01/07 02:59:13;;;;;;;20.23;7.55;;;0.50;99.90;;;;;;20666768;28;20113;-77
2022/01/07 03:09:14;;;;;;;22.80;8.07;;;0.50;99.90;;;;;;20673500;28;20053;-76
2022/01/07 03:19:15;;;;;;;23.25;8.07;;;0.50;99.90;;;;;;20674750;28;20092;-76
2022/01/07 03:29:16;;;;;;;23.15;7.45;;;0.50;99.90;;;;;;20673258;28;20042;-77
2022/01/07 03:39:17;;;;;;;18.25;9.40;;;0.40;99.90;;;;;;20672956;28;20089;-76
2022/01/07 03:49:17;;;;;;;22.15;8.68;;;0.50;99.90;;;;;;20671535;28;20037;-76
2022/01/07 03:59:18;;;;;;;19.17;7.78;;;0.50;99.90;;;;;;20671323;28;20031;-76
2022/01/07 04:09:19;;;;;;;20.70;6.95;;;0.50;99.90;;;;;;20665513;28;20034;-76
2022/01/07 04:19:20;;;;;;;23.55;8.40;;;0.40;99.90;;;;;;20662508;28;20030;-76
2022/01/07 04:29:21;;;;;;;21.30;8.15;;;0.40;99.90;;;;;;20660524;28;20061;-76
2022/01/07 04:39:22;;;;;;;25.27;9.90;;;0.40;99.90;;;;;;20665870;28;20040;-75
2022/01/07 04:49:22;;;;;;;24.38;9.80;;;0.40;99.90;;;;;;20657644;28;20063;-76
2022/01/07 04:59:24;;;;;;;26.02;9.82;;;0.40;99.90;;;;;;20666116;28;20039;-75
2022/01/07 05:09:25;;;;;;;31.27;11.60;;;0.30;99.90;;;;;;20646862;28;20129;-75
2022/01/07 05:19:25;;;;;;;35.45;13.02;;;0.30;99.90;;;;;;20664873;28;20497;-75
2022/01/07 05:29:28;;;;;;;26.55;11.10;;;0.20;99.90;;;;;;20647400;28;20034;-75
2022/01/07 05:39:29;;;;;;;33.60;10.80;;;0.30;99.90;;;;;;20661425;28;20034;-75
2022/01/07 05:49:30;;;;;;;26.98;10.95;;;0.20;99.90;;;;;;20657017;28;20709;-76
2022/01/07 05:59:31;;;;;;;30.02;11.15;;;0.20;99.90;;;;;;20650691;28;20030;-75
2022/01/07 06:09:33;;;;;;;22.10;9.38;;;0.10;99.90;;;;;;20652813;28;20031;-76
2022/01/07 06:19:35;;;;;;;24.30;10.85;;;0.10;99.90;;;;;;20640349;28;20077;-76
2022/01/07 06:29:37;;;;;;;33.97;11.90;;;-0.10;99.90;;;;;;20659289;28;20523;-76
2022/01/07 06:39:38;;;;;;;31.85;9.85;;;-0.30;99.90;;;;;;20673015;28;20393;-76
2022/01/07 06:49:39;;;;;;;24.45;10.02;;;-0.30;99.90;;;;;;20678678;28;20041;-76
2022/01/07 06:59:40;;;;;;;26.30;10.10;;;-0.10;99.90;;;;;;20676347;28;20513;-76
2022/01/07 07:09:41;;;;;;;28.70;9.68;;;-0.20;99.90;;;;;;20674361;28;20034;-76
2022/01/07 07:19:42;;;;;;;24.42;10.38;;;-0.10;99.90;;;;;;20672416;28;20066;-76
2022/01/07 07:29:43;;;;;;;24.10;10.98;;;0.00;99.90;;;;;;20674046;28;20138;-76
2022/01/07 07:39:43;;;;;;;26.67;9.98;;;0.00;99.90;;;;;;20672905;28;20121;-77
2022/01/07 07:49:44;;;;;;;21.75;9.07;;;-0.10;99.90;;;;;;20672619;28;20724;-76
2022/01/07 07:59:45;;;;;;;24.70;10.05;;;-0.10;99.90;;;;;;20672078;28;20027;-76
2022/01/07 08:09:49;;;;;;;24.17;10.68;;;0.10;99.90;;;;;;20664799;28;20242;-76
2022/01/07 08:19:51;;;;;;;28.20;11.50;;;0.00;99.90;;;;;;20665564;28;20497;-76
2022/01/07 08:29:51;;;;;;;25.40;11.95;;;0.50;99.90;;;;;;20650775;28;20030;-76
2022/01/07 08:39:54;;;;;;;27.40;11.35;;;1.00;99.90;;;;;;20662642;28;20029;-76
2022/01/07 08:49:55;;;;;;;18.60;9.20;;;2.30;99.90;;;;;;20660285;28;20030;-77
2022/01/07 08:59:55;;;;;;;;;;;4.50;99.90;;;;;;20663667;28;20551;-77
2022/01/07 09:09:56;;;;;;;11.23;6.68;;;4.80;99.90;;;;;;20665443;28;20396;-77
2022/01/07 09:19:57;;;;;;;12.35;6.10;;;5.40;99.90;;;;;;20648690;28;20650;-77
2022/01/07 09:29:58;;;;;;;9.23;5.67;;;6.20;99.90;;;;;;20665141;28;20367;-77
2022/01/07 09:40:02;;;;;;;14.85;6.18;;;4.20;99.90;;;;;;20664485;28;20105;-76
2022/01/07 09:50:03;;;;;;;13.85;6.88;;;3.70;99.90;;;;;;20655033;28;20212;-77
2022/01/07 10:00:07;;;;;;;11.57;6.97;;;3.00;99.90;;;;;;20656266;28;20588;-76
2022/01/07 10:10:16;;;;;;;16.08;7.68;;;2.60;99.90;;;;;;20661722;28;20042;-76
2022/01/07 10:20:23;;;;;;;13.93;6.55;;;2.90;99.90;;;;;;20662227;28;20523;-76
2022/01/07 10:30:27;;;;;;;14.55;7.07;;;3.40;99.90;;;;;;20649447;28;20026;-76
2022/01/07 10:40:40;;;;;;;17.23;7.07;;;2.90;99.90;;;;;;20632618;28;20489;-75
2022/01/07 10:50:50;;;;;;;15.13;6.97;;;2.60;99.90;;;;;;20638574;28;20037;-76
2022/01/07 11:00:50;;;;;;;17.63;7.97;;;2.60;99.90;;;;;;20644402;28;20109;-78
2022/01/07 11:10:51;;;;;;;19.48;7.10;;;2.70;99.90;;;;;;20631093;28;20184;-77
2022/01/07 11:20:52;;;;;;;15.48;7.10;;;2.80;99.90;;;;;;20647835;28;20038;-76
2022/01/07 11:31:02;;;;;;;15.63;8.10;;;2.90;99.90;;;;;;20633338;28;20129;-76
2022/01/07 11:41:05;;;;;;;14.50;7.70;;;2.90;99.90;;;;;;20633279;28;20508;-76
2022/01/07 11:51:11;;;;;;;13.63;7.30;;;2.60;99.90;;;;;;20615819;28;20520;-77
2022/01/07 12:01:29;;;;;;;13.70;7.15;;;2.40;99.90;;;;;;20611861;28;20057;-77
2022/01/07 12:11:30;;;;;;;15.07;6.70;;;1.90;99.90;;;;;;20637834;28;20049;-75
2022/01/07 12:21:31;;;;;;;;;;;2.10;99.90;;;;;;20637304;28;20484;-76
2022/01/07 12:31:32;;;;;;;14.87;6.80;;;4.00;99.90;;;;;;20657820;28;19917;-79
2022/01/07 12:41:32;;;;;;;;;;;2.80;99.90;;;;;;20683932;28;20327;-77
2022/01/07 12:51:35;;;;;;;13.25;6.20;;;2.10;99.90;;;;;;20685059;28;19914;-78
2022/01/07 13:01:36;;;;;;;13.05;6.43;;;2.00;99.90;;;;;;20691637;28;20030;-77
2022/01/07 13:11:37;;;;;;;12.02;6.88;;;1.70;99.90;;;;;;20686361;28;20437;-78
2022/01/07 13:21:42;;;;;;;50.38;19.50;;;1.70;99.90;;;;;;20659405;28;20031;-77
2022/01/07 13:31:46;;;;;;;13.60;7.35;;;1.80;99.90;;;;;;20648289;28;20572;-77
2022/01/07 13:42:02;;;;;;;18.13;8.10;;;1.80;99.90;;;;;;20643631;28;20041;-77
2022/01/07 13:52:05;;;;;;;22.08;9.18;;;1.80;99.90;;;;;;20624335;28;20038;-77
2022/01/07 14:02:06;;;;;;;19.40;9.13;;;1.50;99.90;;;;;;20624896;28;20042;-77
2022/01/07 14:12:07;;;;;;;16.25;8.80;;;1.70;99.90;;;;;;20637229;28;20049;-77
2022/01/07 14:22:08;;;;;;;22.85;10.77;;;1.70;99.90;;;;;;20695749;28;20396;-77
2022/01/07 14:32:08;;;;;;;24.70;10.82;;;1.50;99.90;;;;;;20601607;28;20531;-77
2022/01/07 14:42:09;;;;;;;21.33;9.98;;;1.60;99.90;;;;;;20622926;28;20042;-76
2022/01/07 14:52:10;;;;;;;14.23;8.73;;;1.60;99.90;;;;;;20645758;28;20030;-76
2022/01/07 15:02:11;;;;;;;19.63;9.25;;;1.70;99.90;;;;;;20645170;28;20045;-77
2022/01/07 15:12:13;;;;;;;18.45;9.68;;;1.70;99.90;;;;;;20639646;28;20026;-77
2022/01/07 15:22:14;;;;;;;17.60;10.00;;;1.60;99.90;;;;;;20629824;28;20627;-76
2022/01/07 15:32:14;;;;;;;19.67;9.45;;;1.60;99.90;;;;;;20633036;28;20034;-76
2022/01/07 15:42:16;;;;;;;17.55;9.60;;;1.60;99.90;;;;;;20638450;28;20512;-76
2022/01/07 15:52:17;;;;;;;27.63;11.70;;;1.50;99.90;;;;;;20613618;28;20168;-76
2022/01/07 16:02:18;;;;;;;22.45;11.88;;;1.40;99.90;;;;;;20650660;28;20034;-76
2022/01/07 16:12:19;;;;;;;22.13;11.38;;;1.30;99.90;;;;;;20641478;28;20651;-77
2022/01/07 16:22:20;;;;;;;28.83;14.00;;;1.20;99.90;;;;;;20648770;28;20042;-77
2022/01/07 16:32:21;;;;;;;42.22;14.77;;;1.20;99.90;;;;;;20640016;28;20034;-76
2022/01/07 16:42:22;;;;;;;37.97;18.15;;;1.10;99.90;;;;;;20628781;28;20034;-78
2022/01/07 16:52:25;;;;;;;27.33;13.98;;;0.90;99.90;;;;;;20630620;28;20066;-77
2022/01/07 17:02:27;;;;;;;29.52;15.35;;;0.80;99.90;;;;;;20623481;28;20089;-77
2022/01/07 17:12:27;;;;;;;44.00;20.13;;;0.70;99.90;;;;;;20643510;28;20038;-78
2022/01/07 17:22:28;;;;;;;37.78;16.88;;;0.70;99.90;;;;;;20632386;28;20173;-76
2022/01/07 17:32:29;;;;;;;39.95;17.10;;;0.60;99.90;;;;;;20639459;28;20054;-77
2022/01/07 17:42:30;;;;;;;26.33;14.15;;;0.60;99.90;;;;;;20607132;28;20153;-77
2022/01/07 17:52:31;;;;;;;29.42;15.30;;;0.80;99.90;;;;;;20639922;28;20030;-77
2022/01/07 18:02:32;;;;;;;30.80;15.07;;;0.80;99.90;;;;;;20656769;28;20065;-77
2022/01/07 18:12:35;;;;;;;35.35;16.50;;;0.70;99.90;;;;;;20654264;28;20049;-78
2022/01/07 18:22:36;;;;;;;196.63;23.50;;;1.20;99.90;;;;;;20664915;28;20030;-77
2022/01/07 18:32:37;;;;;;;163.85;35.65;;;0.80;99.90;;;;;;20651606;28;20332;-77
2022/01/07 18:42:38;;;;;;;29.85;15.00;;;0.70;99.90;;;;;;20669163;28;20053;-78
2022/01/07 18:52:39;;;;;;;35.33;16.60;;;0.70;99.90;;;;;;20658083;28;20038;-79
2022/01/07 19:02:43;;;;;;;40.17;19.45;;;0.70;99.90;;;;;;20676317;28;20058;-78
2022/01/07 19:12:44;;;;;;;34.13;16.15;;;0.70;99.90;;;;;;20655978;28;20035;-78
2022/01/07 19:22:46;;;;;;;31.40;14.27;;;0.80;99.90;;;;;;20657788;28;20037;-78
2022/01/07 19:32:47;;;;;;;43.42;19.85;;;0.80;99.90;;;;;;20708708;28;20496;-78
2022/01/07 19:42:47;;;;;;;28.65;13.15;;;0.80;99.90;;;;;;20679218;28;20037;-78
2022/01/07 19:52:48;;;;;;;32.63;12.93;;;0.90;99.90;;;;;;20690910;28;20037;-78
2022/01/07 20:02:49;;;;;;;23.10;12.05;;;0.90;99.90;;;;;;20741186;28;20113;-78
2022/01/07 20:12:50;;;;;;;35.05;16.20;;;1.00;99.90;;;;;;20691037;28;20042;-77
2022/01/07 20:22:52;;;;;;;25.45;11.35;;;1.00;99.90;;;;;;20707055;28;20034;-78
2022/01/07 20:32:53;;;;;;;23.65;12.40;;;1.00;99.90;;;;;;20708292;28;20057;-78
2022/01/07 20:42:54;;;;;;;22.05;11.30;;;1.00;99.90;;;;;;20710992;28;20085;-77
2022/01/07 20:52:55;;;;;;;19.60;9.30;;;1.00;99.90;;;;;;20690183;28;20037;-78
2022/01/07 21:02:56;;;;;;;17.70;9.27;;;1.00;99.90;;;;;;20649526;28;20031;-77
2022/01/07 21:12:57;;;;;;;17.58;8.88;;;0.80;99.90;;;;;;20648609;28;20034;-77
2022/01/07 21:22:58;;;;;;;19.90;9.48;;;0.80;99.90;;;;;;20675421;28;20088;-77
2022/01/07 21:32:59;;;;;;;23.42;11.20;;;0.90;99.90;;;;;;20692847;28;20045;-77
2022/01/07 21:43:00;;;;;;;28.92;13.32;;;1.00;99.90;;;;;;20715920;28;20027;-77
2022/01/07 21:53:01;;;;;;;26.40;13.13;;;1.00;99.90;;;;;;20658936;28;20438;-77
2022/01/07 22:03:02;;;;;;;25.65;11.68;;;0.70;99.90;;;;;;20658061;28;20038;-77
2022/01/07 22:13:04;;;;;;;28.10;13.52;;;0.70;99.90;;;;;;20638670;28;20044;-77
2022/01/07 22:23:05;;;;;;;33.08;12.82;;;0.70;99.90;;;;;;20657350;28;20038;-77
2022/01/07 22:33:06;;;;;;;27.38;12.10;;;0.60;99.90;;;;;;20674230;28;20459;-77
2022/01/07 22:43:06;;;;;;;32.55;12.65;;;0.60;99.90;;;;;;20665695;28;20038;-78
2022/01/07 22:53:07;;;;;;;28.13;13.07;;;0.70;99.90;;;;;;20653505;28;20046;-77
2022/01/07 23:03:08;;;;;;;27.10;12.05;;;0.80;99.90;;;;;;20694430;28;20034;-77
2022/01/07 23:13:10;;;;;;;27.25;11.80;;;0.70;99.90;;;;;;20670096;28;20540;-77
2022/01/07 23:23:12;;;;;;;25.38;11.45;;;0.70;99.90;;;;;;20674034;28;20038;-77
2022/01/07 23:33:14;;;;;;;23.20;11.43;;;0.80;99.90;;;;;;20665507;28;20039;-77
2022/01/07 23:43:18;;;;;;;23.10;11.13;;;0.90;99.90;;;;;;20655679;28;20121;-77
2022/01/07 23:53:19;;;;;;;15.35;7.28;;;0.80;99.90;;;;;;20675423;28;20401;-77
